GLD1287 TNCM-MDPP
Flight info
| Callsign | GLD1287 |
|---|---|
| Flight time | 1h 45m |
| Altitude | 36000 |
| Route | BOPAT2 JUICE DCT FAJAR DCT KATOK DCT VOGEP CDT KERSO DCT RIBE2S EMIVO R08Z |
| Aircraft | C25C/M-SDFGIRY/S |
Departure
| Time | 2026-05-04 23:25 |
|---|---|
| Airport | Princess Juliana International Airport (TNCM) |
Arrival
| Time | 2026-05-05 01:11 |
|---|---|
| Airport | Gregorio Luperon International Airport (MDPP) |
| Time | Latitude | Longitude | Altitude | Speed | Heading |
|---|---|---|---|---|---|
| 2026-05-04 22:56 | 18.04211 | -63.11031 | 16 ft | 0 kts | 168° |
| 2026-05-04 23:18 | 18.04208 | -63.11031 | -12 ft | 4 kts | 168° |
| 2026-05-04 23:18 | 18.04170 | -63.11041 | 16 ft | 8 kts | 241° |
| 2026-05-04 23:19 | 18.04158 | -63.11110 | 16 ft | 12 kts | 262° |
| 2026-05-04 23:19 | 18.04144 | -63.11211 | 16 ft | 15 kts | 262° |
| 2026-05-04 23:19 | 18.04142 | -63.11289 | 16 ft | 9 kts | 310° |
| 2026-05-04 23:19 | 18.04183 | -63.11304 | 16 ft | 10 kts | 352° |
| 2026-05-04 23:20 | 18.04238 | -63.11376 | 16 ft | 12 kts | 260° |
| 2026-05-04 23:20 | 18.04222 | -63.11468 | 16 ft | 13 kts | 249° |
| 2026-05-04 23:20 | 18.04165 | -63.11549 | 16 ft | 14 kts | 231° |
| 2026-05-04 23:20 | 18.04123 | -63.11603 | 16 ft | 15 kts | 231° |
| 2026-05-04 23:21 | 18.04064 | -63.11693 | 16 ft | 15 kts | 254° |
| 2026-05-04 23:21 | 18.04049 | -63.11794 | 16 ft | 12 kts | 261° |
| 2026-05-04 23:21 | 18.04046 | -63.11816 | 16 ft | 0 kts | 261° |
| 2026-05-04 23:22 | 18.04044 | -63.11830 | 16 ft | 9 kts | 261° |
| 2026-05-04 23:22 | 18.04040 | -63.11858 | 16 ft | 0 kts | 261° |
| 2026-05-04 23:23 | 18.04037 | -63.11873 | 16 ft | 10 kts | 261° |
| 2026-05-04 23:23 | 18.04000 | -63.11943 | 16 ft | 9 kts | 234° |
| 2026-05-04 23:23 | 18.03937 | -63.11945 | 18 ft | 14 kts | 103° |
| 2026-05-04 23:23 | 18.03953 | -63.11883 | 18 ft | 0 kts | 80° |
| 2026-05-04 23:25 | 18.03956 | -63.11863 | 17 ft | 24 kts | 80° |
| 2026-05-04 23:25 | 18.04042 | -63.11256 | 49 ft | 137 kts | 82° |
| 2026-05-04 23:25 | 18.04199 | -63.10095 | 849 ft | 178 kts | 83° |
| 2026-05-04 23:25 | 18.04389 | -63.08707 | 2088 ft | 203 kts | 83° |
| 2026-05-04 23:26 | 18.04597 | -63.07186 | 3506 ft | 216 kts | 85° |
| 2026-05-04 23:26 | 18.04806 | -63.05593 | 5004 ft | 223 kts | 84° |
| 2026-05-04 23:26 | 18.04611 | -63.03984 | 6421 ft | 228 kts | 117° |
| 2026-05-04 23:26 | 18.03473 | -63.02827 | 7734 ft | 236 kts | 153° |
| 2026-05-04 23:27 | 18.01860 | -63.02549 | 9020 ft | 247 kts | 186° |
| 2026-05-04 23:27 | 18.00280 | -63.03282 | 10300 ft | 256 kts | 220° |
| 2026-05-04 23:27 | 17.99307 | -63.04844 | 11529 ft | 262 kts | 252° |
| 2026-05-04 23:27 | 17.98881 | -63.06733 | 12716 ft | 269 kts | 252° |
| 2026-05-04 23:28 | 17.98183 | -63.08570 | 13947 ft | 274 kts | 243° |
| 2026-05-04 23:28 | 17.97179 | -63.10283 | 15071 ft | 277 kts | 234° |
| 2026-05-04 23:28 | 17.95896 | -63.11808 | 16249 ft | 281 kts | 225° |
| 2026-05-04 23:28 | 17.94364 | -63.13115 | 17389 ft | 288 kts | 217° |
| 2026-05-04 23:29 | 17.92602 | -63.14176 | 18504 ft | 296 kts | 207° |
| 2026-05-04 23:29 | 17.90655 | -63.14944 | 19515 ft | 302 kts | 198° |
| 2026-05-04 23:29 | 17.88663 | -63.15657 | 20516 ft | 305 kts | 211° |
| 2026-05-04 23:29 | 17.87171 | -63.17228 | 21532 ft | 310 kts | 238° |
| 2026-05-04 23:30 | 17.86484 | -63.19395 | 22441 ft | 321 kts | 263° |
| 2026-05-04 23:30 | 17.86775 | -63.21739 | 23350 ft | 331 kts | 289° |
| 2026-05-04 23:30 | 17.87805 | -63.23925 | 24173 ft | 338 kts | 302° |
| 2026-05-04 23:30 | 17.89226 | -63.25901 | 24986 ft | 341 kts | 311° |
| 2026-05-04 23:31 | 17.90890 | -63.27691 | 25824 ft | 343 kts | 319° |
| 2026-05-04 23:31 | 17.92732 | -63.29234 | 26690 ft | 343 kts | 326° |
| 2026-05-04 23:31 | 17.94670 | -63.30700 | 27526 ft | 345 kts | 318° |
| 2026-05-04 23:31 | 17.96124 | -63.32669 | 28603 ft | 340 kts | 301° |
| 2026-05-04 23:32 | 17.97125 | -63.34904 | 29671 ft | 336 kts | 295° |
| 2026-05-04 23:32 | 17.98042 | -63.37146 | 30565 ft | 332 kts | 296° |
| 2026-05-04 23:32 | 17.99082 | -63.39299 | 31342 ft | 329 kts | 301° |
| 2026-05-04 23:32 | 18.00222 | -63.41378 | 32113 ft | 327 kts | 301° |
| 2026-05-04 23:33 | 18.01315 | -63.43465 | 32867 ft | 325 kts | 299° |
| 2026-05-04 23:33 | 18.02361 | -63.45564 | 33622 ft | 323 kts | 298° |
| 2026-05-04 23:33 | 18.03408 | -63.47648 | 34315 ft | 321 kts | 299° |
| 2026-05-04 23:33 | 18.04466 | -63.49709 | 34971 ft | 318 kts | 299° |
| 2026-05-04 23:34 | 18.05511 | -63.51749 | 35640 ft | 315 kts | 299° |
| 2026-05-04 23:34 | 18.06552 | -63.53796 | 35973 ft | 324 kts | 299° |
| 2026-05-04 23:34 | 18.07647 | -63.55948 | 35976 ft | 343 kts | 299° |
| 2026-05-04 23:34 | 18.08798 | -63.58213 | 35988 ft | 360 kts | 299° |
| 2026-05-04 23:35 | 18.09989 | -63.60552 | 35989 ft | 375 kts | 299° |
| 2026-05-04 23:35 | 18.11244 | -63.63019 | 35989 ft | 389 kts | 299° |
| 2026-05-04 23:35 | 18.12499 | -63.65588 | 35988 ft | 401 kts | 294° |
| 2026-05-04 23:35 | 18.13385 | -63.68412 | 35991 ft | 413 kts | 285° |
| 2026-05-04 23:36 | 18.14450 | -63.74383 | 35991 ft | 412 kts | 282° |
| 2026-05-04 23:36 | 18.15491 | -63.80207 | 35995 ft | 400 kts | 282° |
| 2026-05-04 23:37 | 18.16483 | -63.85889 | 35992 ft | 390 kts | 282° |
| 2026-05-04 23:37 | 18.17464 | -63.91454 | 35983 ft | 383 kts | 282° |
| 2026-05-04 23:38 | 18.18423 | -63.96925 | 35981 ft | 378 kts | 282° |
| 2026-05-04 23:38 | 18.19373 | -64.02339 | 35980 ft | 374 kts | 282° |
| 2026-05-04 23:39 | 18.20311 | -64.07706 | 35985 ft | 371 kts | 282° |
| 2026-05-04 23:39 | 18.21234 | -64.12995 | 35974 ft | 369 kts | 282° |
| 2026-05-04 23:40 | 18.22159 | -64.18310 | 35971 ft | 368 kts | 282° |
| 2026-05-04 23:40 | 18.23077 | -64.23589 | 35972 ft | 366 kts | 282° |
| 2026-05-04 23:41 | 18.23992 | -64.28857 | 35964 ft | 365 kts | 282° |
| 2026-05-04 23:41 | 18.24903 | -64.34108 | 35976 ft | 365 kts | 282° |
| 2026-05-04 23:42 | 18.25812 | -64.39355 | 35967 ft | 364 kts | 282° |
| 2026-05-04 23:42 | 18.26718 | -64.44597 | 35971 ft | 364 kts | 282° |
| 2026-05-04 23:43 | 18.27622 | -64.49833 | 35967 ft | 363 kts | 281° |
| 2026-05-04 23:43 | 18.28521 | -64.55060 | 35967 ft | 363 kts | 281° |
| 2026-05-04 23:44 | 18.29412 | -64.60248 | 35971 ft | 363 kts | 281° |
| 2026-05-04 23:44 | 18.30308 | -64.65470 | 35969 ft | 362 kts | 281° |
| 2026-05-04 23:45 | 18.31202 | -64.70688 | 35965 ft | 362 kts | 281° |
| 2026-05-04 23:45 | 18.32096 | -64.75910 | 35965 ft | 362 kts | 281° |
| 2026-05-04 23:46 | 18.32985 | -64.81121 | 35967 ft | 362 kts | 281° |
| 2026-05-04 23:46 | 18.33873 | -64.86331 | 35968 ft | 361 kts | 281° |
| 2026-05-04 23:47 | 18.34761 | -64.91542 | 35962 ft | 361 kts | 281° |
| 2026-05-04 23:47 | 18.35638 | -64.96707 | 35964 ft | 361 kts | 281° |
| 2026-05-04 23:48 | 18.36521 | -65.01915 | 35987 ft | 361 kts | 281° |
| 2026-05-04 23:48 | 18.37406 | -65.07130 | 35981 ft | 362 kts | 281° |
| 2026-05-04 23:49 | 18.38288 | -65.12349 | 35983 ft | 362 kts | 281° |
| 2026-05-04 23:49 | 18.39169 | -65.17574 | 35983 ft | 362 kts | 281° |
| 2026-05-04 23:50 | 18.40047 | -65.22790 | 35986 ft | 362 kts | 281° |
| 2026-05-04 23:50 | 18.40925 | -65.28015 | 35983 ft | 362 kts | 281° |
| 2026-05-04 23:51 | 18.41803 | -65.33241 | 35986 ft | 362 kts | 281° |
| 2026-05-04 23:51 | 18.42678 | -65.38456 | 35990 ft | 362 kts | 281° |
| 2026-05-04 23:52 | 18.43545 | -65.43636 | 35989 ft | 362 kts | 281° |
| 2026-05-04 23:52 | 18.44416 | -65.48851 | 35992 ft | 361 kts | 281° |
| 2026-05-04 23:53 | 18.45284 | -65.54063 | 35992 ft | 361 kts | 280° |
| 2026-05-04 23:53 | 18.46152 | -65.59280 | 35990 ft | 361 kts | 280° |
| 2026-05-04 23:54 | 18.47016 | -65.64487 | 35985 ft | 361 kts | 280° |
| 2026-05-04 23:54 | 18.47845 | -65.69698 | 35986 ft | 360 kts | 280° |
| 2026-05-04 23:55 | 18.48676 | -65.74912 | 35984 ft | 360 kts | 280° |
| 2026-05-04 23:56 | 18.49909 | -65.82685 | 35980 ft | 360 kts | 280° |
| 2026-05-04 23:56 | 18.50736 | -65.87887 | 35978 ft | 360 kts | 280° |
| 2026-05-04 23:57 | 18.51560 | -65.93098 | 35977 ft | 360 kts | 280° |
| 2026-05-04 23:57 | 18.52382 | -65.98299 | 35976 ft | 360 kts | 280° |
| 2026-05-04 23:58 | 18.53200 | -66.03496 | 35975 ft | 359 kts | 279° |
| 2026-05-04 23:58 | 18.54017 | -66.08692 | 35968 ft | 359 kts | 279° |
| 2026-05-04 23:59 | 18.54828 | -66.13853 | 35967 ft | 359 kts | 279° |
| 2026-05-04 23:59 | 18.55643 | -66.19049 | 35967 ft | 359 kts | 279° |
| 2026-05-05 00:00 | 18.56456 | -66.24240 | 35964 ft | 359 kts | 279° |
| 2026-05-05 00:00 | 18.57267 | -66.29428 | 35965 ft | 359 kts | 279° |
| 2026-05-05 00:01 | 18.58076 | -66.34619 | 35969 ft | 359 kts | 279° |
| 2026-05-05 00:01 | 18.58883 | -66.39806 | 35971 ft | 359 kts | 279° |
| 2026-05-05 00:02 | 18.59688 | -66.44996 | 35976 ft | 359 kts | 279° |
| 2026-05-05 00:02 | 18.60493 | -66.50184 | 35970 ft | 358 kts | 279° |
| 2026-05-05 00:03 | 18.61295 | -66.55370 | 35971 ft | 358 kts | 279° |
| 2026-05-05 00:03 | 18.62098 | -66.60559 | 35972 ft | 358 kts | 279° |
| 2026-05-05 00:04 | 18.62893 | -66.65710 | 35970 ft | 358 kts | 279° |
| 2026-05-05 00:04 | 18.63691 | -66.70894 | 35978 ft | 358 kts | 279° |
| 2026-05-05 00:05 | 18.64487 | -66.76081 | 35971 ft | 358 kts | 279° |
| 2026-05-05 00:05 | 18.65281 | -66.81259 | 35970 ft | 358 kts | 279° |
| 2026-05-05 00:06 | 18.66073 | -66.86439 | 35979 ft | 358 kts | 279° |
| 2026-05-05 00:06 | 18.66863 | -66.91616 | 35981 ft | 358 kts | 279° |
| 2026-05-05 00:07 | 18.67520 | -66.95923 | 35987 ft | 358 kts | 279° |
| 2026-05-05 00:07 | 18.68438 | -67.01952 | 35984 ft | 358 kts | 279° |
| 2026-05-05 00:08 | 18.69226 | -67.07132 | 35983 ft | 358 kts | 279° |
| 2026-05-05 00:08 | 18.70011 | -67.12310 | 35984 ft | 358 kts | 279° |
| 2026-05-05 00:09 | 18.70663 | -67.16618 | 35984 ft | 358 kts | 279° |
| 2026-05-05 00:09 | 18.71445 | -67.21796 | 35983 ft | 357 kts | 279° |
| 2026-05-05 00:10 | 18.72227 | -67.26984 | 35989 ft | 357 kts | 278° |
| 2026-05-05 00:10 | 18.73008 | -67.32180 | 35984 ft | 357 kts | 278° |
| 2026-05-05 00:11 | 18.73780 | -67.37324 | 35981 ft | 357 kts | 278° |
| 2026-05-05 00:11 | 18.74558 | -67.42513 | 35982 ft | 357 kts | 278° |
| 2026-05-05 00:12 | 18.75334 | -67.47693 | 35983 ft | 357 kts | 278° |
| 2026-05-05 00:12 | 18.76107 | -67.52867 | 35984 ft | 357 kts | 278° |
| 2026-05-05 00:13 | 18.76879 | -67.58043 | 35986 ft | 357 kts | 278° |
| 2026-05-05 00:13 | 18.77649 | -67.63217 | 35986 ft | 357 kts | 278° |
| 2026-05-05 00:14 | 18.78410 | -67.68350 | 35985 ft | 356 kts | 278° |
| 2026-05-05 00:14 | 18.79175 | -67.73517 | 35985 ft | 356 kts | 278° |
| 2026-05-05 00:15 | 18.79939 | -67.78683 | 35987 ft | 356 kts | 278° |
| 2026-05-05 00:15 | 18.80701 | -67.83847 | 35987 ft | 355 kts | 278° |
| 2026-05-05 00:16 | 18.81462 | -67.89006 | 35987 ft | 355 kts | 278° |
| 2026-05-05 00:16 | 18.82220 | -67.94155 | 35986 ft | 355 kts | 278° |
| 2026-05-05 00:17 | 18.82970 | -67.99267 | 35987 ft | 354 kts | 278° |
| 2026-05-05 00:17 | 18.83619 | -68.04417 | 35986 ft | 354 kts | 277° |
| 2026-05-05 00:18 | 18.84274 | -68.09571 | 35988 ft | 354 kts | 277° |
| 2026-05-05 00:18 | 18.84909 | -68.14721 | 35988 ft | 353 kts | 277° |
| 2026-05-05 00:19 | 18.85549 | -68.19871 | 35986 ft | 353 kts | 277° |
| 2026-05-05 00:19 | 18.86183 | -68.25011 | 35985 ft | 353 kts | 277° |
| 2026-05-05 00:20 | 18.86814 | -68.30119 | 35987 ft | 353 kts | 277° |
| 2026-05-05 00:20 | 18.87448 | -68.35253 | 35986 ft | 352 kts | 277° |
| 2026-05-05 00:21 | 18.88079 | -68.40381 | 35987 ft | 352 kts | 277° |
| 2026-05-05 00:21 | 18.88708 | -68.45512 | 35983 ft | 352 kts | 277° |
| 2026-05-05 00:22 | 18.89334 | -68.50634 | 35984 ft | 352 kts | 277° |
| 2026-05-05 00:22 | 18.89954 | -68.55726 | 35983 ft | 351 kts | 277° |
| 2026-05-05 00:23 | 18.90577 | -68.60847 | 35986 ft | 351 kts | 277° |
| 2026-05-05 00:23 | 18.91199 | -68.65964 | 35987 ft | 351 kts | 277° |
| 2026-05-05 00:24 | 18.91819 | -68.71073 | 35983 ft | 351 kts | 277° |
| 2026-05-05 00:24 | 18.92437 | -68.76178 | 35983 ft | 351 kts | 277° |
| 2026-05-05 00:25 | 18.93053 | -68.81287 | 35983 ft | 350 kts | 277° |
| 2026-05-05 00:25 | 18.93664 | -68.86364 | 35983 ft | 350 kts | 277° |
| 2026-05-05 00:26 | 18.94275 | -68.91467 | 35983 ft | 350 kts | 277° |
| 2026-05-05 00:26 | 18.94886 | -68.96572 | 35983 ft | 350 kts | 277° |
| 2026-05-05 00:27 | 18.95497 | -69.01686 | 35984 ft | 350 kts | 277° |
| 2026-05-05 00:27 | 18.96106 | -69.06786 | 35979 ft | 350 kts | 276° |
| 2026-05-05 00:28 | 18.96713 | -69.11887 | 35979 ft | 350 kts | 277° |
| 2026-05-05 00:28 | 18.97360 | -69.16947 | 35975 ft | 349 kts | 278° |
| 2026-05-05 00:29 | 18.98118 | -69.22050 | 35975 ft | 349 kts | 278° |
| 2026-05-05 00:29 | 18.98855 | -69.27085 | 35975 ft | 349 kts | 278° |
| 2026-05-05 00:30 | 18.99600 | -69.32146 | 35980 ft | 349 kts | 278° |
| 2026-05-05 00:30 | 19.00342 | -69.37213 | 35978 ft | 349 kts | 278° |
| 2026-05-05 00:31 | 19.01082 | -69.42276 | 35979 ft | 348 kts | 278° |
| 2026-05-05 00:31 | 19.01820 | -69.47332 | 35975 ft | 348 kts | 278° |
| 2026-05-05 00:32 | 19.02556 | -69.52390 | 35967 ft | 348 kts | 278° |
| 2026-05-05 00:32 | 19.03292 | -69.57443 | 35957 ft | 348 kts | 278° |
| 2026-05-05 00:33 | 19.04025 | -69.62496 | 35954 ft | 347 kts | 278° |
| 2026-05-05 00:33 | 19.04757 | -69.67544 | 35948 ft | 347 kts | 278° |
| 2026-05-05 00:34 | 19.05033 | -69.72584 | 35927 ft | 347 kts | 269° |
| 2026-05-05 00:34 | 19.04980 | -69.77705 | 35928 ft | 346 kts | 269° |
| 2026-05-05 00:35 | 19.04913 | -69.82793 | 35948 ft | 346 kts | 269° |
| 2026-05-05 00:35 | 19.04846 | -69.87872 | 35950 ft | 346 kts | 269° |
| 2026-05-05 00:36 | 19.04776 | -69.92935 | 35929 ft | 346 kts | 269° |
| 2026-05-05 00:36 | 19.04709 | -69.98026 | 35929 ft | 346 kts | 269° |
| 2026-05-05 00:37 | 19.04637 | -70.03111 | 35929 ft | 346 kts | 269° |
| 2026-05-05 00:37 | 19.04567 | -70.08196 | 35932 ft | 346 kts | 269° |
| 2026-05-05 00:38 | 19.04494 | -70.13276 | 35932 ft | 345 kts | 269° |
| 2026-05-05 00:38 | 19.04418 | -70.18358 | 35932 ft | 345 kts | 269° |
| 2026-05-05 00:39 | 19.04341 | -70.23430 | 35933 ft | 345 kts | 269° |
| 2026-05-05 00:39 | 19.04264 | -70.28469 | 35842 ft | 347 kts | 269° |
| 2026-05-05 00:39 | 19.04226 | -70.31031 | 35420 ft | 346 kts | 269° |
| 2026-05-05 00:40 | 19.04184 | -70.33554 | 35004 ft | 342 kts | 269° |
| 2026-05-05 00:40 | 19.04148 | -70.36051 | 34603 ft | 338 kts | 269° |
| 2026-05-05 00:40 | 19.04107 | -70.38523 | 34193 ft | 334 kts | 269° |
| 2026-05-05 00:40 | 19.04068 | -70.40970 | 33756 ft | 331 kts | 269° |
| 2026-05-05 00:41 | 19.04028 | -70.43397 | 33300 ft | 328 kts | 269° |
| 2026-05-05 00:41 | 19.03989 | -70.45797 | 32849 ft | 326 kts | 269° |
| 2026-05-05 00:41 | 19.03951 | -70.48184 | 32406 ft | 324 kts | 269° |
| 2026-05-05 00:41 | 19.03912 | -70.50554 | 31973 ft | 322 kts | 269° |
| 2026-05-05 00:42 | 19.03871 | -70.52911 | 31548 ft | 320 kts | 268° |
| 2026-05-05 00:42 | 19.03834 | -70.55254 | 31125 ft | 318 kts | 268° |
| 2026-05-05 00:42 | 19.03792 | -70.57593 | 30714 ft | 317 kts | 268° |
| 2026-05-05 00:42 | 19.03755 | -70.59894 | 30310 ft | 316 kts | 268° |
| 2026-05-05 00:43 | 19.03714 | -70.62215 | 29866 ft | 315 kts | 268° |
| 2026-05-05 00:43 | 19.03673 | -70.64526 | 29397 ft | 314 kts | 268° |
| 2026-05-05 00:43 | 19.03634 | -70.66831 | 28930 ft | 313 kts | 268° |
| 2026-05-05 00:43 | 19.03595 | -70.69125 | 28472 ft | 312 kts | 268° |
| 2026-05-05 00:44 | 19.03553 | -70.71414 | 28023 ft | 311 kts | 269° |
| 2026-05-05 00:44 | 19.03513 | -70.73692 | 27579 ft | 310 kts | 269° |
| 2026-05-05 00:44 | 19.03471 | -70.75964 | 27144 ft | 309 kts | 269° |
| 2026-05-05 00:44 | 19.03432 | -70.78230 | 26718 ft | 308 kts | 269° |
| 2026-05-05 00:45 | 19.03389 | -70.80492 | 26293 ft | 307 kts | 269° |
| 2026-05-05 00:45 | 19.03350 | -70.82743 | 25874 ft | 306 kts | 269° |
| 2026-05-05 00:45 | 19.03310 | -70.84959 | 25473 ft | 305 kts | 269° |
| 2026-05-05 00:45 | 19.03264 | -70.87199 | 25068 ft | 304 kts | 269° |
| 2026-05-05 00:46 | 19.03223 | -70.89433 | 24666 ft | 304 kts | 270° |
| 2026-05-05 00:46 | 19.03185 | -70.91664 | 24274 ft | 303 kts | 270° |
| 2026-05-05 00:46 | 19.03141 | -70.93888 | 23885 ft | 303 kts | 270° |
| 2026-05-05 00:46 | 19.03099 | -70.96108 | 23467 ft | 302 kts | 270° |
| 2026-05-05 00:47 | 19.03057 | -70.98326 | 23001 ft | 301 kts | 270° |
| 2026-05-05 00:47 | 19.03015 | -71.00535 | 22539 ft | 300 kts | 270° |
| 2026-05-05 00:47 | 19.02971 | -71.02738 | 22088 ft | 299 kts | 269° |
| 2026-05-05 00:47 | 19.02930 | -71.04930 | 21641 ft | 298 kts | 269° |
| 2026-05-05 00:48 | 19.02885 | -71.07118 | 21207 ft | 297 kts | 269° |
| 2026-05-05 00:48 | 19.02844 | -71.09290 | 20771 ft | 295 kts | 269° |
| 2026-05-05 00:48 | 19.02800 | -71.11453 | 20340 ft | 294 kts | 269° |
| 2026-05-05 00:48 | 19.02757 | -71.13608 | 19927 ft | 292 kts | 269° |
| 2026-05-05 00:49 | 19.02716 | -71.15742 | 19612 ft | 287 kts | 269° |
| 2026-05-05 00:49 | 19.02672 | -71.17830 | 19355 ft | 281 kts | 269° |
| 2026-05-05 00:49 | 19.02633 | -71.19872 | 19098 ft | 276 kts | 268° |
| 2026-05-05 00:49 | 19.02589 | -71.21881 | 18854 ft | 271 kts | 268° |
| 2026-05-05 00:50 | 19.02559 | -71.23856 | 18603 ft | 267 kts | 270° |
| 2026-05-05 00:50 | 19.02821 | -71.25784 | 18341 ft | 265 kts | 283° |
| 2026-05-05 00:50 | 19.03479 | -71.27590 | 18045 ft | 263 kts | 296° |
| 2026-05-05 00:50 | 19.04506 | -71.29188 | 17773 ft | 263 kts | 308° |
| 2026-05-05 00:51 | 19.05855 | -71.30498 | 17501 ft | 264 kts | 320° |
| 2026-05-05 00:51 | 19.07450 | -71.31453 | 17230 ft | 265 kts | 334° |
| 2026-05-05 00:51 | 19.09194 | -71.32002 | 16959 ft | 266 kts | 347° |
| 2026-05-05 00:51 | 19.11044 | -71.32120 | 16689 ft | 268 kts | 0° |
| 2026-05-05 00:52 | 19.12884 | -71.31779 | 16414 ft | 270 kts | 14° |
| 2026-05-05 00:52 | 19.14676 | -71.31198 | 16140 ft | 270 kts | 14° |
| 2026-05-05 00:52 | 19.16475 | -71.30638 | 15865 ft | 269 kts | 14° |
| 2026-05-05 00:52 | 19.18278 | -71.30072 | 15581 ft | 271 kts | 15° |
| 2026-05-05 00:53 | 19.20090 | -71.29500 | 15296 ft | 272 kts | 14° |
| 2026-05-05 00:53 | 19.21912 | -71.28924 | 15023 ft | 274 kts | 15° |
| 2026-05-05 00:53 | 19.23747 | -71.28345 | 14741 ft | 275 kts | 15° |
| 2026-05-05 00:53 | 19.25588 | -71.27764 | 14449 ft | 276 kts | 15° |
| 2026-05-05 00:54 | 19.27439 | -71.27179 | 14159 ft | 277 kts | 15° |
| 2026-05-05 00:54 | 19.29267 | -71.26601 | 13873 ft | 278 kts | 15° |
| 2026-05-05 00:54 | 19.31149 | -71.26006 | 13557 ft | 278 kts | 15° |
| 2026-05-05 00:54 | 19.32979 | -71.25429 | 13262 ft | 277 kts | 15° |
| 2026-05-05 00:55 | 19.34831 | -71.24844 | 12961 ft | 277 kts | 16° |
| 2026-05-05 00:55 | 19.36671 | -71.24261 | 12681 ft | 275 kts | 16° |
| 2026-05-05 00:55 | 19.38503 | -71.23680 | 12397 ft | 274 kts | 16° |
| 2026-05-05 00:55 | 19.40330 | -71.23103 | 12109 ft | 273 kts | 16° |
| 2026-05-05 00:56 | 19.42176 | -71.22520 | 11470 ft | 284 kts | 16° |
| 2026-05-05 00:56 | 19.44099 | -71.21911 | 10709 ft | 292 kts | 16° |
| 2026-05-05 00:56 | 19.46058 | -71.21288 | 9954 ft | 295 kts | 17° |
| 2026-05-05 00:56 | 19.47356 | -71.20875 | 9416 ft | 287 kts | 17° |
| 2026-05-05 00:57 | 19.49184 | -71.20298 | 8594 ft | 269 kts | 17° |
| 2026-05-05 00:57 | 19.51005 | -71.19720 | 7808 ft | 276 kts | 16° |
| 2026-05-05 00:57 | 19.52862 | -71.19135 | 7090 ft | 279 kts | 16° |
| 2026-05-05 00:57 | 19.54654 | -71.18561 | 7006 ft | 259 kts | 16° |
| 2026-05-05 00:58 | 19.56336 | -71.17956 | 6991 ft | 251 kts | 26° |
| 2026-05-05 00:58 | 19.57754 | -71.16903 | 6683 ft | 257 kts | 41° |
| 2026-05-05 00:58 | 19.58894 | -71.15371 | 6077 ft | 274 kts | 60° |
| 2026-05-05 00:58 | 19.59599 | -71.13457 | 5477 ft | 284 kts | 74° |
| 2026-05-05 00:59 | 19.60147 | -71.11414 | 5014 ft | 288 kts | 73° |
| 2026-05-05 00:59 | 19.60713 | -71.09423 | 4999 ft | 274 kts | 73° |
| 2026-05-05 00:59 | 19.61239 | -71.07517 | 4997 ft | 263 kts | 73° |
| 2026-05-05 00:59 | 19.61759 | -71.05684 | 4992 ft | 256 kts | 73° |
| 2026-05-05 01:00 | 19.62248 | -71.03923 | 4987 ft | 247 kts | 73° |
| 2026-05-05 01:00 | 19.62718 | -71.02244 | 4977 ft | 222 kts | 73° |
| 2026-05-05 01:00 | 19.63126 | -71.00785 | 4975 ft | 192 kts | 73° |
| 2026-05-05 01:00 | 19.63480 | -70.99511 | 4952 ft | 166 kts | 72° |
| 2026-05-05 01:01 | 19.63787 | -70.98415 | 4961 ft | 150 kts | 73° |
| 2026-05-05 01:01 | 19.64086 | -70.97350 | 4976 ft | 158 kts | 72° |
| 2026-05-05 01:01 | 19.64415 | -70.96227 | 4972 ft | 154 kts | 72° |
| 2026-05-05 01:01 | 19.64717 | -70.95193 | 4971 ft | 144 kts | 71° |
| 2026-05-05 01:02 | 19.65003 | -70.94209 | 4975 ft | 136 kts | 72° |
| 2026-05-05 01:02 | 19.65282 | -70.93256 | 4990 ft | 140 kts | 70° |
| 2026-05-05 01:02 | 19.65606 | -70.92162 | 5005 ft | 159 kts | 72° |
| 2026-05-05 01:02 | 19.65929 | -70.91020 | 5025 ft | 164 kts | 71° |
| 2026-05-05 01:03 | 19.66277 | -70.89845 | 5002 ft | 169 kts | 71° |
| 2026-05-05 01:03 | 19.66616 | -70.88665 | 5012 ft | 168 kts | 72° |
| 2026-05-05 01:03 | 19.66968 | -70.87464 | 4962 ft | 172 kts | 72° |
| 2026-05-05 01:03 | 19.67333 | -70.86202 | 4711 ft | 185 kts | 71° |
| 2026-05-05 01:04 | 19.67722 | -70.84874 | 4463 ft | 182 kts | 72° |
| 2026-05-05 01:04 | 19.68395 | -70.82552 | 4000 ft | 153 kts | 72° |
| 2026-05-05 01:04 | 19.68690 | -70.81528 | 3982 ft | 142 kts | 72° |
| 2026-05-05 01:05 | 19.69011 | -70.80431 | 3939 ft | 171 kts | 72° |
| 2026-05-05 01:05 | 19.69384 | -70.79141 | 3720 ft | 188 kts | 73° |
| 2026-05-05 01:05 | 19.69742 | -70.77907 | 3403 ft | 166 kts | 73° |
| 2026-05-05 01:05 | 19.70073 | -70.76777 | 3082 ft | 155 kts | 74° |
| 2026-05-05 01:06 | 19.70374 | -70.75738 | 2980 ft | 137 kts | 75° |
| 2026-05-05 01:06 | 19.70642 | -70.74819 | 2904 ft | 132 kts | 77° |
| 2026-05-05 01:06 | 19.70926 | -70.73799 | 2819 ft | 145 kts | 75° |
| 2026-05-05 01:06 | 19.71214 | -70.72814 | 2663 ft | 140 kts | 76° |
| 2026-05-05 01:07 | 19.71507 | -70.71823 | 2490 ft | 141 kts | 76° |
| 2026-05-05 01:07 | 19.71792 | -70.70821 | 2309 ft | 143 kts | 75° |
| 2026-05-05 01:07 | 19.72091 | -70.69806 | 2120 ft | 143 kts | 76° |
| 2026-05-05 01:07 | 19.72377 | -70.68811 | 1925 ft | 136 kts | 76° |
| 2026-05-05 01:08 | 19.72647 | -70.67862 | 1757 ft | 135 kts | 76° |
| 2026-05-05 01:08 | 19.72920 | -70.66935 | 1599 ft | 130 kts | 77° |
| 2026-05-05 01:08 | 19.73183 | -70.66024 | 1425 ft | 127 kts | 76° |
| 2026-05-05 01:08 | 19.73435 | -70.65136 | 1277 ft | 126 kts | 78° |
| 2026-05-05 01:09 | 19.73693 | -70.64248 | 1139 ft | 127 kts | 76° |
| 2026-05-05 01:09 | 19.73953 | -70.63350 | 969 ft | 126 kts | 76° |
| 2026-05-05 01:09 | 19.74204 | -70.62472 | 816 ft | 124 kts | 75° |
| 2026-05-05 01:09 | 19.74462 | -70.61592 | 650 ft | 122 kts | 74° |
| 2026-05-05 01:10 | 19.74690 | -70.60792 | 366 ft | 118 kts | 74° |
| 2026-05-05 01:10 | 19.74904 | -70.59986 | 298 ft | 110 kts | 73° |
| 2026-05-05 01:10 | 19.75135 | -70.59208 | 215 ft | 111 kts | 73° |
| 2026-05-05 01:10 | 19.75363 | -70.58444 | 53 ft | 99 kts | 71° |
| 2026-05-05 01:11 | 19.75496 | -70.57986 | 22 ft | 25 kts | 73° |
| 2026-05-05 01:11 | 19.75554 | -70.57782 | 21 ft | 33 kts | 73° |
| 2026-05-05 01:11 | 19.75627 | -70.57526 | 18 ft | 38 kts | 73° |
| 2026-05-05 01:11 | 19.75696 | -70.57269 | 18 ft | 29 kts | 90° |
| 2026-05-05 01:12 | 19.75594 | -70.57119 | 20 ft | 32 kts | 133° |
| 2026-05-05 01:12 | 19.75533 | -70.57043 | 20 ft | 5 kts | 111° |
| 2026-05-05 01:12 | 19.75549 | -70.56950 | 20 ft | 21 kts | 71° |
| 2026-05-05 01:12 | 19.75597 | -70.56784 | 21 ft | 25 kts | 74° |
| 2026-05-05 01:13 | 19.75631 | -70.56665 | 23 ft | 14 kts | 74° |
| 2026-05-05 01:13 | 19.75670 | -70.56535 | 21 ft | 25 kts | 72° |
| 2026-05-05 01:13 | 19.75704 | -70.56418 | 22 ft | 11 kts | 74° |
| 2026-05-05 01:13 | 19.75695 | -70.56336 | 22 ft | 17 kts | 99° |
| 2026-05-05 01:14 | 19.75654 | -70.56297 | 20 ft | 2 kts | 161° |